WetterOnline ( https://www.wetteronline.at )

Wetter aktuell Greifswald

Aktuelles Wetter: Greifswald (6m)

6-stündlich | Neueste Meldungen
Ortszeit Temperatur Wetter
So, 15.09. 20:00 15.3° C wolkig
So, 15.09. 14:00 19.7° C bewölkt
So, 15.09. 8:00 12.5° C leicht bewölkt
So, 15.09. 2:00 11.6° C leicht bewölkt
Sa, 14.09. 20:00 12.9° C leicht bewölkt
Sa, 14.09. 14:00 16.6° C wolkig
Sa, 14.09. 8:00 9.9° C leicht bewölkt
Sa, 14.09. 2:00 11.3° C leicht bewölkt
Ortszeit Temperatur Wetter
Mo, 16.09. 0:00 13.4° C bewölkt
So, 15.09. 23:50 13.4° C wolkig
So, 15.09. 23:40 13.4° C wolkig
So, 15.09. 23:30 13.9° C bewölkt
So, 15.09. 23:20 13.9° C bewölkt
So, 15.09. 23:10 13.9° C bewölkt
So, 15.09. 23:00 14.0° C bewölkt
So, 15.09. 22:30 14.2° C wolkig
So, 15.09. 22:00 14.9° C bedeckt
So, 15.09. 21:30 14.8° C wolkig
Ortszeit Relative Feuchte Sichtweite
So, 15.09. 20:00 69% 30 km
So, 15.09. 14:00 59% 50 km
So, 15.09. 8:00 62% 50 km
So, 15.09. 2:00 69% 60 km
Sa, 14.09. 20:00 71% 50 km
Sa, 14.09. 14:00 50% 55 km
Sa, 14.09. 8:00 83% 40 km
Sa, 14.09. 2:00 83% 40 km
Ortszeit Relative Feuchte Sichtweite
Mo, 16.09. 0:00 73% 25 km
So, 15.09. 23:50 73% -
So, 15.09. 23:40 72% -
So, 15.09. 23:30 70% 23 km
So, 15.09. 23:20 70% -
So, 15.09. 23:10 70% -
So, 15.09. 23:00 69% 25 km
So, 15.09. 22:30 67% 26 km
So, 15.09. 22:00 71% 27 km
So, 15.09. 21:30 72% 27 km
Ortszeit Niederschlagsmenge Niederschlagsart
So, 15.09. 20:00 2 l/m2 in 12 Std. Regen
So, 15.09. 14:00 0.0 l/m2 in 6 Std. -
So, 15.09. 8:00 0.0 l/m2 in 12 Std. -
So, 15.09. 2:00 0.0 l/m2 in 6 Std. -
Sa, 14.09. 20:00 0.0 l/m2 in 12 Std. -
Sa, 14.09. 14:00 0.0 l/m2 in 6 Std. -
Sa, 14.09. 8:00 0.0 l/m2 in 12 Std. -
Sa, 14.09. 2:00 0.0 l/m2 in 6 Std. -
Ortszeit Niederschlagsmenge Niederschlagsart
Mo, 16.09. 0:00 0.0 l/m2 in 1 Std. -
So, 15.09. 23:50 keine Meldung -
So, 15.09. 23:40 keine Meldung -
So, 15.09. 23:30 0.0 l/m2 in 1 Std. -
So, 15.09. 23:20 keine Meldung -
So, 15.09. 23:10 keine Meldung -
So, 15.09. 23:00 0.0 l/m2 in 1 Std. -
So, 15.09. 22:30 0.0 l/m2 in 1 Std. -
So, 15.09. 22:00 0.0 l/m2 in 1 Std. -
So, 15.09. 21:30 0.0 l/m2 in 1 Std. -
Ortszeit Stärke Spitze Richtung
km/h Bft. km/h Grad Sektor
So, 15.09. 20:00 25 4 50 290° W
So, 15.09. 14:00 26 4 46 250° W
So, 15.09. 8:00 14 3 32 220° SW
So, 15.09. 2:00 11 2 22 200° S
Sa, 14.09. 20:00 4 1 32 260° W
Sa, 14.09. 14:00 14 3 29 290° W
Sa, 14.09. 8:00 9 2 17 250° W
Sa, 14.09. 2:00 11 2 22 260° W
Ortszeit Stärke Spitze Richtung
km/h Bft. km/h Grad Sektor
Mo, 16.09. 0:00 17 3 28 270° W
So, 15.09. 23:50 17 3 - 270° W
So, 15.09. 23:40 14 3 - 270° W
So, 15.09. 23:30 14 3 29 270° W
So, 15.09. 23:20 14 3 - 270° W
So, 15.09. 23:10 19 3 - 280° W
So, 15.09. 23:00 17 3 44 280° W
So, 15.09. 22:30 25 4 47 290° W
So, 15.09. 22:00 22 4 32 280° W
So, 15.09. 21:30 14 3 29 280° W
Ortszeit Untergrenze Bedeckung Gattung
total tief tief mittel hoch
So, 15.09. 20:00 840 m 8/8 3/8 Sc Ac -
So, 15.09. 14:00 930 m 7/8 5/8 Sc Ac Ci
So, 15.09. 8:00 6900 m 7/8 7/8 - - Ci
So, 15.09. 2:00 9000 m 7/8 0/8 - - Cs
Sa, 14.09. 20:00 9000 m 6/8 0/8 - - Ci
Sa, 14.09. 14:00 1410 m 6/8 4/8 Cu - Ci
Sa, 14.09. 8:00 9000 m 4/8 0/8 - - Ci
Sa, 14.09. 2:00 7500 m 6/8 0/8 - - Ci
Ortszeit Bedeckungsgrad in Achtel und Wolkenuntergrenze
Mo, 16.09. 0:00 3(840m) 7(1080m)
So, 15.09. 23:50 4(840m) 6(1080m)
So, 15.09. 23:40 3(870m) 5(1110m)
So, 15.09. 23:30 7(900m) 7(1110m)
So, 15.09. 23:20 4(870m) 7(1110m)
So, 15.09. 23:10 7(1080m)
So, 15.09. 23:00 7(1080m)
So, 15.09. 22:30 2(1050m) 4(9000m) 5(10500m)
So, 15.09. 22:00 7(870m) 7(2700m) 8(9000m)
So, 15.09. 21:30 8(3000m) 8(2700m) 8(3900m)
Ortszeit Luftdruck NN (hPa) Tendenz (hPa in 3 Std.)
So, 15.09. 20:00 1016 + 0,6
So, 15.09. 14:00 1016 - 1,1
So, 15.09. 8:00 1018 - 3,5
So, 15.09. 2:00 1025 - 2,7
Sa, 14.09. 20:00 1030 - 1,1
Sa, 14.09. 14:00 1033 - 0,8
Sa, 14.09. 8:00 1033 + 0,3
Sa, 14.09. 2:00 1033 + 1,1
Ortszeit Luftdruck NN (hPa) Tendenz (hPa in 3 Std.)
Mo, 16.09. 0:00 1016 + 0,4
So, 15.09. 23:50 1016 keine Meldung
So, 15.09. 23:40 1016 keine Meldung
So, 15.09. 23:30 1016 + 0,3
So, 15.09. 23:20 1016 keine Meldung
So, 15.09. 23:10 1016 keine Meldung
So, 15.09. 23:00 1017 + 0,5
So, 15.09. 22:30 1016 + 0,6
So, 15.09. 22:00 1016 + 0,6
So, 15.09. 21:30 1016 + 0,7
Ortszeit Schneehöhe (cm)
So, 15.09. 20:00 0
So, 15.09. 14:00 0
So, 15.09. 8:00 0
So, 15.09. 2:00 0
Sa, 14.09. 20:00 0
Sa, 14.09. 14:00 0
Sa, 14.09. 8:00 0
Sa, 14.09. 2:00 0
Ortszeit Schneehöhe (cm)
Mo, 16.09. 0:00 -
So, 15.09. 23:50 -
So, 15.09. 23:40 -
So, 15.09. 23:30 -
So, 15.09. 23:20 -
So, 15.09. 23:10 -
So, 15.09. 23:00 -
So, 15.09. 22:30 -
So, 15.09. 22:00 -
So, 15.09. 21:30 -
Link zu dieser Seite / Seite empfehlen

Das Wetter in ...